Time;durP1;ratioP1;P1;durP2;ratioP2;P2;SDS_P1;SDS_P2;PMS_P1;PMS_P2;Temp;Humidity;BMP_temperature;BMP_pressure;BME280_temperature;BME280_humidity;BME280_pressure;Samples;Min_cycle;Max_cycle;Signal;HPM_P1;HPM_P2
2022/07/09 00:00:46;;;;;;;8.90;1.23;;;;;;;24.36;46.79;101377.09;4920432;29;20055;-66
2022/07/09 00:03:31;;;;;;;2.65;0.88;;;;;;;24.40;46.64;101367.56;4933856;29;20058;-66
2022/07/09 00:06:16;;;;;;;1.33;0.98;;;;;;;24.33;46.73;101378.66;4931135;29;20047;-67
2022/07/09 00:09:01;;;;;;;5.07;1.30;;;;;;;24.31;46.83;101380.25;4933793;29;20047;-66
2022/07/09 00:11:46;;;;;;;3.17;1.08;;;;;;;24.26;46.77;101371.09;4933875;29;20137;-64
2022/07/09 00:14:31;;;;;;;3.42;1.30;;;;;;;24.16;47.12;101373.81;4933755;29;20066;-66
2022/07/09 00:17:15;;;;;;;2.03;1.02;;;;;;;24.19;46.90;101379.41;4933743;29;20051;-68
2022/07/09 00:20:04;;;;;;;3.10;1.00;;;;;;;24.22;46.88;101375.88;4934575;29;20050;-67
2022/07/09 00:22:49;;;;;;;6.90;1.10;;;;;;;24.13;47.22;101369.03;4934102;29;20515;-67
2022/07/09 00:25:34;;;;;;;5.97;0.85;;;;;;;24.52;46.63;101381.13;4937208;29;20063;-68
2022/07/09 00:28:19;;;;;;;1.70;0.60;;;;;;;24.86;46.39;101367.63;4937032;29;20047;-67
2022/07/09 00:31:04;;;;;;;4.35;0.85;;;;;;;25.20;45.57;101370.03;4937087;29;20059;-67
2022/07/09 00:33:49;;;;;;;0.90;0.57;;;;;;;25.43;45.29;101367.63;4942415;29;20054;-66
2022/07/09 00:36:33;;;;;;;5.15;0.63;;;;;;;25.66;44.35;101364.41;4937011;29;20518;-68
2022/07/09 00:39:18;;;;;;;2.60;0.60;;;;;;;25.80;43.73;101361.59;4936969;29;20066;-66
2022/07/09 00:42:09;;;;;;;0.70;0.28;;;;;;;25.80;43.50;101364.41;4936927;29;20050;-67
2022/07/09 00:44:54;;;;;;;3.75;0.70;;;;;;;25.48;43.14;101365.25;4936467;29;20047;-67
2022/07/09 00:47:39;;;;;;;1.83;0.50;;;;;;;25.13;43.91;101359.72;4940971;29;20046;-65
2022/07/09 00:50:24;;;;;;;6.40;0.70;;;;;;;24.86;44.22;101367.63;4955507;28;20127;-67
2022/07/09 00:53:14;;;;;;;7.50;0.95;;;;;;;24.61;44.96;101361.25;4955396;29;20501;-68
2022/07/09 00:56:00;;;;;;;1.38;0.63;;;;;;;24.41;45.45;101362.81;4955485;29;20069;-66
2022/07/09 00:58:46;;;;;;;6.70;0.98;;;;;;;24.29;45.79;101361.97;4955116;28;20054;-64
2022/07/09 01:01:31;;;;;;;7.20;0.88;;;;;;;24.01;46.87;101338.84;4955385;29;20514;-63
2022/07/09 01:04:18;;;;;;;1.70;0.65;;;;;;;23.98;46.85;101348.72;4955189;29;20407;-66
2022/07/09 01:07:03;;;;;;;3.47;0.93;;;;;;;23.86;47.34;101346.31;4955373;29;20046;-67
2022/07/09 01:09:48;;;;;;;5.65;0.80;;;;;;;23.92;47.20;101343.97;4955006;28;20070;-67
2022/07/09 01:12:33;;;;;;;3.42;0.80;;;;;;;23.77;47.46;101337.56;4955149;29;20043;-67
2022/07/09 01:15:18;;;;;;;2.30;0.55;;;;;;;23.79;47.75;101340.72;4952957;29;20506;-67
2022/07/09 01:18:03;;;;;;;1.23;0.70;;;;;;;23.81;47.28;101341.13;4936013;29;20534;-67
2022/07/09 01:20:48;;;;;;;1.75;1.55;;;;;;;24.06;46.36;101338.44;4935744;29;20062;-66
2022/07/09 01:23:33;;;;;;;1.88;0.47;;;;;;;24.00;46.40;101340.00;4935891;29;20046;-67
2022/07/09 01:26:19;;;;;;;0.82;0.70;;;;;;;24.10;46.20;101336.47;4935656;29;20071;-65
2022/07/09 01:29:05;;;;;;;3.33;0.57;;;;;;;24.01;46.13;101328.50;4935639;29;20047;-67
2022/07/09 01:31:50;;;;;;;2.28;0.60;;;;;;;23.85;46.41;101334.41;4935753;29;20054;-67
2022/07/09 01:34:36;;;;;;;4.85;0.73;;;;;;;23.79;46.71;101332.38;4934710;29;20546;-67
2022/07/09 01:37:21;;;;;;;8.63;1.58;;;;;;;23.69;47.04;101336.72;4935475;29;20046;-68
2022/07/09 01:40:07;;;;;;;1.15;0.70;;;;;;;23.77;47.07;101338.31;4935495;29;20062;-67
2022/07/09 01:42:52;;;;;;;2.05;0.80;;;;;;;23.78;47.12;101334.38;4940790;29;20062;-67
2022/07/09 01:45:37;;;;;;;1.83;0.73;;;;;;;23.74;47.20;101329.97;4935488;29;20467;-66
2022/07/09 01:48:22;;;;;;;2.55;0.77;;;;;;;24.05;47.03;101328.53;4935312;29;20051;-67
2022/07/09 01:51:09;;;;;;;2.10;0.85;;;;;;;24.10;46.36;101322.56;4935323;29;20054;-67
2022/07/09 01:53:54;;;;;;;2.25;0.60;;;;;;;24.43;45.66;101324.28;4940773;29;20051;-66
2022/07/09 01:56:39;;;;;;;0.80;0.60;;;;;;;24.41;45.41;101327.44;4935277;29;20070;-65
2022/07/09 01:59:24;;;;;;;4.07;0.50;;;;;;;24.76;45.50;101312.78;4935074;29;20071;-66
2022/07/09 02:02:09;;;;;;;0.77;0.57;;;;;;;24.86;45.05;101323.13;4934987;29;20695;-66
2022/07/09 02:04:54;;;;;;;5.15;0.50;;;;;;;24.97;44.96;101328.72;4916151;29;20051;-66
2022/07/09 02:07:39;;;;;;;1.40;0.52;;;;;;;25.13;44.60;101326.31;4915954;29;20503;-63
2022/07/09 02:10:24;;;;;;;3.38;0.90;;;;;;;25.03;43.21;101327.91;4918665;29;20042;-66
2022/07/09 02:13:09;;;;;;;1.38;0.57;;;;;;;24.97;43.64;101329.50;4934755;29;20055;-66
2022/07/09 02:15:54;;;;;;;6.60;1.02;;;;;;;24.66;43.71;101321.91;4934826;29;20062;-66
2022/07/09 02:18:39;;;;;;;3.00;0.77;;;;;;;24.43;44.27;101321.50;4934745;29;20038;-66
2022/07/09 02:21:24;;;;;;;3.05;0.60;;;;;;;24.07;45.12;101328.94;4934613;29;20062;-66
2022/07/09 02:24:09;;;;;;;6.90;0.70;;;;;;;23.83;45.63;101316.53;4934152;29;20043;-65
2022/07/09 02:26:54;;;;;;;13.32;1.08;;;;;;;23.88;45.41;101318.91;4934572;29;20047;-64
2022/07/09 02:29:39;;;;;;;2.50;0.60;;;;;;;23.70;46.15;101318.88;4934321;29;20042;-65
2022/07/09 02:32:24;;;;;;;7.07;0.82;;;;;;;23.58;46.27;101321.97;4934407;29;20070;-65
2022/07/09 02:35:09;;;;;;;2.58;0.88;;;;;;;23.62;46.17;101317.22;4934238;29;20063;-68
2022/07/09 02:37:54;;;;;;;4.90;0.60;;;;;;;23.61;46.01;101309.31;4934639;29;20051;-64
2022/07/09 02:40:39;;;;;;;5.00;0.70;;;;;;;23.53;46.30;101308.44;4915176;29;20067;-68
2022/07/09 02:43:24;;;;;;;3.75;0.90;;;;;;;23.65;46.38;101313.69;4915216;29;20059;-65
2022/07/09 02:46:10;;;;;;;6.55;1.08;;;;;;;23.93;45.91;101309.41;4932452;29;20526;-67
2022/07/09 02:48:54;;;;;;;2.17;0.80;;;;;;;23.95;45.48;101307.06;4934272;29;20062;-67
2022/07/09 02:51:40;;;;;;;3.55;0.70;;;;;;;23.86;45.70;101318.53;4933881;29;20522;-68
2022/07/09 02:54:24;;;;;;;2.35;0.73;;;;;;;23.68;46.03;101314.88;4934264;29;20050;-62
2022/07/09 02:57:09;;;;;;;1.08;0.60;;;;;;;23.85;45.87;101320.50;4934108;29;20050;-67
2022/07/09 02:59:54;;;;;;;3.92;0.80;;;;;;;24.09;45.58;101319.00;4934012;29;20043;-65
2022/07/09 03:02:39;;;;;;;1.08;0.50;;;;;;;23.97;45.37;101326.91;4940289;29;20050;-66
2022/07/09 03:05:24;;;;;;;3.80;0.80;;;;;;;23.86;45.40;101324.09;4934101;29;20050;-67
2022/07/09 03:08:09;;;;;;;2.00;0.65;;;;;;;23.68;45.66;101331.53;4934188;29;20043;-66
2022/07/09 03:10:54;;;;;;;2.72;0.80;;;;;;;23.50;46.84;101334.22;4939401;29;20067;-67
2022/07/09 03:13:39;;;;;;;3.00;0.60;;;;;;;23.33;47.46;101337.66;4933843;29;20055;-64
2022/07/09 03:16:24;;;;;;;4.95;1.42;;;;;;;23.36;46.96;101336.91;4933909;29;20055;-65
2022/07/09 03:19:09;;;;;;;5.18;0.77;;;;;;;23.28;47.84;101335.25;4933660;29;20046;-67
2022/07/09 03:21:54;;;;;;;1.65;0.60;;;;;;;23.08;47.87;101333.91;4934269;29;20062;-66
2022/07/09 03:24:39;;;;;;;1.10;0.68;;;;;;;22.91;48.37;101336.16;4933954;29;20054;-64
2022/07/09 03:27:24;;;;;;;2.42;0.90;;;;;;;22.80;48.43;101326.16;4933991;29;20600;-66
2022/07/09 03:30:09;;;;;;;5.25;0.85;;;;;;;22.75;48.51;101340.38;4933715;29;20051;-66
2022/07/09 03:32:54;;;;;;;0.77;0.73;;;;;;;22.71;48.30;101340.34;4933905;29;20059;-67
2022/07/09 03:35:39;;;;;;;1.73;0.80;;;;;;;22.77;48.46;101336.03;4933539;29;20411;-63
2022/07/09 03:38:25;;;;;;;3.42;0.88;;;;;;;22.35;50.40;101338.38;4933699;29;20059;-66
2022/07/09 03:41:09;;;;;;;1.48;0.90;;;;;;;22.38;50.00;101334.84;4932728;29;20062;-68
2022/07/09 03:43:54;;;;;;;2.42;0.60;;;;;;;22.48;49.54;101336.94;4933787;29;20063;-68
2022/07/09 03:46:39;;;;;;;4.20;0.95;;;;;;;22.36;50.02;101335.22;4954427;23;20354;-80
2022/07/09 03:49:24;;;;;;;5.90;1.00;;;;;;;22.34;50.18;101331.25;4928021;29;20054;-84
2022/07/09 03:52:09;;;;;;;3.60;0.90;;;;;;;22.33;49.66;101336.00;4936751;29;20063;-85
2022/07/09 03:54:54;;;;;;;;;;;;;;;22.38;49.84;101332.06;4933763;29;20512;-87
2022/07/09 03:57:38;;;;;;;2.78;0.70;;;;;;;22.31;49.98;101327.25;4932456;29;19915;-86
2022/07/09 04:00:23;;;;;;;4.07;0.70;;;;;;;22.21;51.60;101339.00;4941895;29;20047;-82
2022/07/09 04:03:08;;;;;;;4.75;0.80;;;;;;;22.35;50.63;101349.47;4928563;29;20051;-82
2022/07/09 04:05:53;;;;;;;1.35;0.68;;;;;;;22.21;51.12;101343.75;4936487;29;20408;-82
2022/07/09 04:08:37;;;;;;;5.07;0.90;;;;;;;22.05;51.66;101346.75;4916914;29;20035;-81
2022/07/09 04:11:22;;;;;;;1.67;0.95;;;;;;;22.17;51.24;101350.06;4925275;29;20059;-83
2022/07/09 04:14:07;;;;;;;2.28;0.75;;;;;;;22.23;51.59;101353.31;4938755;29;20531;-81
2022/07/09 04:16:52;;;;;;;3.60;0.80;;;;;;;22.40;51.38;101352.69;4925190;29;20046;-82
2022/07/09 04:19:37;;;;;;;4.18;1.00;;;;;;;22.57;49.61;101362.34;4938636;29;20103;-81
2022/07/09 04:22:22;;;;;;;3.70;0.77;;;;;;;22.67;49.42;101366.41;4940541;29;20054;-81
2022/07/09 04:25:07;;;;;;;1.10;0.70;;;;;;;22.72;48.56;101363.31;4949543;29;20050;-83
2022/07/09 04:27:52;;;;;;;3.33;1.10;;;;;;;22.79;48.34;101369.75;4929260;29;20059;-82
2022/07/09 04:30:36;;;;;;;2.13;0.65;;;;;;;22.80;49.00;101376.09;4934882;28;20050;-81
2022/07/09 04:33:21;;;;;;;4.45;1.23;;;;;;;22.79;48.54;101369.75;4932901;29;20059;-82
2022/07/09 04:36:06;;;;;;;4.28;1.30;;;;;;;22.82;48.62;101368.97;4922790;29;20071;-82
2022/07/09 04:38:51;;;;;;;2.80;0.85;;;;;;;22.86;47.65;101369.00;4924707;29;20050;-81
2022/07/09 04:41:36;;;;;;;2.58;0.80;;;;;;;22.96;47.13;101368.28;4920778;29;20413;-85
2022/07/09 04:44:21;;;;;;;6.40;0.77;;;;;;;22.89;48.73;101374.59;4926496;29;20527;-84
2022/07/09 04:47:06;;;;;;;1.50;0.80;;;;;;;22.72;49.36;101364.13;4937930;29;20054;-83
2022/07/09 04:49:51;;;;;;;2.17;0.90;;;;;;;22.71;49.98;101370.84;4939534;29;20047;-83
2022/07/09 04:52:36;;;;;;;4.65;0.88;;;;;;;22.79;49.48;101369.75;4933263;29;20435;-83
2022/07/09 04:55:22;;;;;;;7.13;1.02;;;;;;;22.80;49.76;101370.53;4936419;28;20059;-84
2022/07/09 04:58:06;;;;;;;3.35;0.93;;;;;;;22.89;50.46;101363.50;4933667;29;20055;-82
2022/07/09 05:00:51;;;;;;;2.70;0.95;;;;;;;22.96;49.63;101374.63;4925095;29;20046;-82
2022/07/09 05:03:37;;;;;;;2.60;0.93;;;;;;;23.17;49.82;101378.75;4929944;29;20051;-83
2022/07/09 05:06:21;;;;;;;4.13;1.00;;;;;;;23.19;49.67;101384.75;4928306;29;20059;-82
2022/07/09 05:09:07;;;;;;;3.47;1.80;;;;;;;23.36;49.35;101384.09;4923070;29;20051;-82
2022/07/09 05:11:51;;;;;;;5.28;1.95;;;;;;;23.50;48.94;101388.97;4934754;29;20440;-84
2022/07/09 05:14:37;;;;;;;8.38;2.45;;;;;;;23.65;48.18;101393.41;4934373;29;20042;-82
2022/07/09 05:17:23;;;;;;;11.27;2.00;;;;;;;23.69;48.11;101395.03;4937841;29;20055;-83
2022/07/09 05:20:09;;;;;;;5.72;1.30;;;;;;;23.66;47.83;101389.47;4925077;29;20048;-78
2022/07/09 05:22:55;;;;;;;8.80;1.35;;;;;;;23.66;47.46;101390.25;4918766;29;20047;-78
2022/07/09 05:25:39;;;;;;;14.40;1.50;;;;;;;23.66;47.86;101390.25;4916368;29;20515;-79
2022/07/09 05:28:24;;;;;;;6.60;1.52;;;;;;;23.85;47.62;101387.19;4914343;29;20050;-78
2022/07/09 05:31:09;;;;;;;5.60;2.30;;;;;;;23.82;47.76;101392.72;4919065;29;20416;-78
2022/07/09 05:33:54;;;;;;;10.63;1.73;;;;;;;23.85;47.49;101389.16;4916860;29;20055;-78
2022/07/09 05:36:39;;;;;;;5.68;1.85;;;;;;;23.94;47.63;101388.81;4929962;29;20050;-78
2022/07/09 05:39:23;;;;;;;4.65;1.98;;;;;;;23.97;46.88;101399.16;4910274;29;20078;-78
2022/07/09 05:42:09;;;;;;;4.93;2.10;;;;;;;23.92;46.99;101391.19;4921279;29;20054;-78
2022/07/09 05:44:56;;;;;;;5.60;2.92;;;;;;;23.80;47.07;101392.31;4922160;28;20074;-78
2022/07/09 05:47:40;;;;;;;6.00;1.48;;;;;;;23.81;45.96;101391.94;4924140;29;20065;-78
2022/07/09 05:50:25;;;;;;;3.22;1.42;;;;;;;24.00;46.12;101399.16;4934981;29;20046;-78
2022/07/09 05:53:10;;;;;;;5.38;1.70;;;;;;;23.90;46.41;101397.13;4938878;29;20527;-79
2022/07/09 05:55:55;;;;;;;3.75;1.33;;;;;;;24.12;45.48;101400.81;4941189;28;20524;-78
2022/07/09 05:58:39;;;;;;;6.07;1.70;;;;;;;24.39;44.49;101402.13;4935076;29;20047;-79
2022/07/09 06:01:24;;;;;;;7.22;1.02;;;;;;;24.61;43.34;101401.00;4935504;29;20074;-78
2022/07/09 06:04:09;;;;;;;;;;;;;;;24.84;42.15;101402.63;4926512;29;20062;-79
2022/07/09 06:06:54;;;;;;;3.03;0.90;;;;;;;24.97;42.88;101398.28;4932199;29;19919;-79
2022/07/09 06:09:38;;;;;;;;;;;;;;;25.10;40.68;101393.91;4936040;29;20054;-78
2022/07/09 06:12:22;;;;;;;3.72;0.65;;;;;;;25.17;40.36;101393.91;4929733;29;19915;-79
2022/07/09 06:15:10;;;;;;;2.15;0.77;;;;;;;25.25;40.03;101389.13;4935560;29;20063;-79
2022/07/09 06:17:54;;;;;;;5.97;0.77;;;;;;;25.33;40.06;101380.38;4934722;29;20054;-79
2022/07/09 06:20:39;;;;;;;;;;;;;;;25.50;38.46;101385.13;4919282;29;20412;-78
2022/07/09 06:23:23;;;;;;;7.40;1.07;;;;;;;25.49;37.90;101389.13;4924025;29;19922;-78
2022/07/09 06:26:09;;;;;;;2.67;0.80;;;;;;;25.59;36.93;101383.94;4916378;29;20062;-78
2022/07/09 06:28:54;;;;;;;1.92;0.50;;;;;;;25.61;37.76;101389.91;4918099;29;20417;-77
2022/07/09 06:31:38;;;;;;;;;;;;;;;25.81;37.65;101399.41;4909460;29;20405;-78
2022/07/09 06:34:22;;;;;;;5.78;0.43;;;;;;;25.78;37.35;101389.06;4942457;29;20375;-79
2022/07/09 06:37:07;;;;;;;;;;;;;;;25.89;36.92;101396.22;4941444;29;20057;-78
2022/07/09 06:39:55;;;;;;;4.60;0.63;;;;;;;25.88;36.34;101394.59;4942735;28;19919;-78
2022/07/09 06:42:40;;;;;;;8.75;1.25;;;;;;;25.95;36.45;101396.59;4928837;29;20050;-79
2022/07/09 06:45:35;;;;;;;4.38;0.40;;;;;;;25.97;35.90;101392.19;4936706;29;20393;-80
2022/07/09 06:48:20;;;;;;;1.67;0.28;;;;;;;25.97;36.57;101391.38;4929088;29;20051;-79
2022/07/09 06:51:05;;;;;;;5.70;1.05;;;;;;;26.00;36.44;101396.16;4927496;29;20042;-80
2022/07/09 06:53:50;;;;;;;3.53;0.50;;;;;;;26.06;36.74;101394.53;4934261;29;20046;-79
2022/07/09 06:56:34;;;;;;;2.08;0.50;;;;;;;26.15;36.68;101386.56;4936335;29;20054;-75
2022/07/09 06:59:19;;;;;;;;;;;;;;;26.27;36.42;101390.88;4937944;29;20054;-79
2022/07/09 07:02:04;;;;;;;4.10;0.47;;;;;;;26.17;36.46;101392.50;4912037;29;19919;-79
2022/07/09 07:04:48;;;;;;;3.08;0.55;;;;;;;26.26;36.15;101390.09;4925388;29;20050;-80
2022/07/09 07:07:33;;;;;;;;;;;;;;;26.28;36.62;101398.84;4925197;29;20051;-79
2022/07/09 07:10:17;;;;;;;1.40;0.40;;;;;;;26.35;36.13;101398.84;4933484;29;19919;-82
2022/07/09 07:13:02;;;;;;;4.43;0.50;;;;;;;26.38;36.38;101402.78;4940935;29;20283;-80
2022/07/09 07:15:49;;;;;;;11.38;0.68;;;;;;;26.65;36.28;101391.88;4925050;29;20059;-77
2022/07/09 07:18:33;;;;;;;3.53;0.30;;;;;;;26.96;35.69;101404.03;4934215;29;20059;-75
2022/07/09 07:21:18;;;;;;;3.83;0.30;;;;;;;26.74;36.31;101400.56;4935443;29;20420;-75
2022/07/09 07:24:05;;;;;;;2.03;0.40;;;;;;;26.58;36.03;101408.66;4925577;29;20055;-75
2022/07/09 07:26:49;;;;;;;2.60;0.80;;;;;;;27.12;35.40;101407.88;4929156;29;20047;-78
2022/07/09 07:29:34;;;;;;;0.55;0.30;;;;;;;26.89;35.50;101399.31;4925619;29;20055;-80
2022/07/09 07:32:19;;;;;;;3.83;0.50;;;;;;;27.13;35.40;101397.50;4927048;29;20050;-78
2022/07/09 07:35:04;;;;;;;8.60;0.32;;;;;;;27.21;35.51;101402.63;4938702;29;20059;-77
2022/07/09 07:37:49;;;;;;;1.58;0.30;;;;;;;27.48;35.45;101399.97;4939252;29;20066;-77
2022/07/09 07:40:34;;;;;;;4.00;0.45;;;;;;;27.48;35.06;101399.22;4940047;29;20062;-78
2022/07/09 07:43:19;;;;;;;8.85;0.40;;;;;;;26.95;36.16;101397.66;4934082;29;20067;-77
2022/07/09 07:46:03;;;;;;;;;;;;;;;27.08;36.72;101398.75;4937203;29;20050;-78
2022/07/09 07:48:48;;;;;;;2.72;0.30;;;;;;;27.60;35.83;101385.53;4931982;29;19914;-77
2022/07/09 07:51:32;;;;;;;;;;;;;;;26.83;36.93;101392.53;4925396;29;20042;-76
2022/07/09 07:54:17;;;;;;;330.88;11.50;;;;;;;27.88;35.18;101395.59;4938612;29;19915;-78
2022/07/09 07:57:02;;;;;;;13.90;2.25;;;;;;;28.08;35.20;101401.34;4941669;29;20040;-78
2022/07/09 07:59:46;;;;;;;2.05;0.55;;;;;;;28.10;34.28;101390.53;4939163;29;20040;-78
2022/07/09 08:02:31;;;;;;;3.67;0.90;;;;;;;28.18;34.13;101402.47;4938712;29;20050;-78
2022/07/09 08:05:16;;;;;;;2.05;0.40;;;;;;;28.19;34.35;101395.66;4922014;29;20059;-77
2022/07/09 08:08:01;;;;;;;1.83;0.40;;;;;;;28.21;34.30;101393.22;4933684;29;20444;-79
2022/07/09 08:10:48;;;;;;;5.03;0.82;;;;;;;28.19;34.84;101390.06;4914030;29;20046;-78
2022/07/09 08:13:33;;;;;;;2.20;0.50;;;;;;;28.13;34.82;101394.53;4938402;29;20051;-79
2022/07/09 08:16:18;;;;;;;1.25;0.30;;;;;;;28.21;34.63;101401.59;4933320;29;20043;-79
2022/07/09 08:19:03;;;;;;;5.25;0.70;;;;;;;28.22;35.03;101395.59;4931624;29;20051;-79
2022/07/09 08:21:48;;;;;;;2.47;0.60;;;;;;;28.24;35.19;101398.00;4933101;29;20051;-79
2022/07/09 08:24:33;;;;;;;7.85;0.70;;;;;;;28.20;35.68;101397.22;4926209;29;20416;-79
2022/07/09 08:27:17;;;;;;;5.07;1.15;;;;;;;28.17;35.43;101389.69;4923463;29;20238;-79
2022/07/09 08:30:03;;;;;;;3.03;0.60;;;;;;;28.16;35.73;101393.69;4938032;29;20058;-79
2022/07/09 08:32:48;;;;;;;0.95;0.32;;;;;;;28.19;35.79;101392.84;4933635;29;20526;-80
2022/07/09 08:35:33;;;;;;;2.92;0.82;;;;;;;28.24;35.32;101395.19;4942872;29;20070;-80
2022/07/09 08:38:18;;;;;;;7.78;0.70;;;;;;;28.30;35.55;101390.69;4956477;28;20054;-79
2022/07/09 08:41:05;;;;;;;2.17;0.30;;;;;;;28.27;35.83;101389.53;4945062;29;20539;-80
2022/07/09 08:43:51;;;;;;;5.00;0.73;;;;;;;28.33;35.40;101389.88;4942495;29;20059;-80
2022/07/09 08:46:36;;;;;;;3.95;0.35;;;;;;;28.33;35.39;101387.06;4927287;29;20046;-79
2022/07/09 08:49:24;;;;;;;3.15;0.60;;;;;;;28.38;35.55;101389.41;4926508;29;20094;-79
2022/07/09 08:52:10;;;;;;;1.27;0.60;;;;;;;28.43;35.93;101383.31;4945340;28;20059;-79
2022/07/09 08:54:54;;;;;;;2.45;0.30;;;;;;;28.43;35.03;101391.72;4956432;29;20058;-80
2022/07/09 08:57:39;;;;;;;1.90;0.50;;;;;;;28.41;35.72;101394.13;4956317;28;20050;-79
2022/07/09 09:00:24;;;;;;;9.77;0.77;;;;;;;28.41;35.53;101388.53;4947683;28;20047;-79
2022/07/09 09:03:09;;;;;;;4.75;1.02;;;;;;;28.31;35.49;101384.69;4955982;29;20062;-79
2022/07/09 09:06:09;;;;;;;3.70;0.30;;;;;;;28.35;35.92;101382.63;4941724;29;20054;-80
2022/07/09 09:08:57;;;;;;;3.47;0.40;;;;;;;28.49;35.35;101381.66;4926396;29;20050;-79
2022/07/09 09:11:42;;;;;;;1.05;0.30;;;;;;;28.54;34.91;101375.56;4936579;29;20055;-80
2022/07/09 09:14:29;;;;;;;3.70;0.47;;;;;;;28.55;35.23;101379.94;4932511;29;20409;-80
2022/07/09 09:17:14;;;;;;;4.18;0.40;;;;;;;28.55;35.18;101379.94;4940560;28;20123;-80
2022/07/09 09:20:10;;;;;;;3.10;0.60;;;;;;;28.57;35.18;101373.94;4945819;28;20054;-80
2022/07/09 09:22:59;;;;;;;8.18;1.25;;;;;;;28.72;35.64;101381.72;4943631;29;20051;-81
2022/07/09 09:25:44;;;;;;;4.28;0.80;;;;;;;28.77;35.29;101369.25;4938036;29;20046;-79
2022/07/09 09:28:29;;;;;;;3.65;0.68;;;;;;;28.74;35.52;101370.09;4916757;29;20050;-80
2022/07/09 09:31:32;;;;;;;2.75;0.60;;;;;;;28.86;34.77;101372.28;4926286;29;20055;-79
2022/07/09 09:34:18;;;;;;;1.35;0.30;;;;;;;28.87;34.71;101368.28;4933841;29;20047;-79
2022/07/09 09:37:04;;;;;;;1.23;0.43;;;;;;;28.84;35.05;101358.72;4919071;29;20520;-77
2022/07/09 09:39:51;;;;;;;3.25;1.15;;;;;;;28.86;35.18;101363.88;4927598;29;20047;-79
2022/07/09 09:42:41;;;;;;;1.42;0.40;;;;;;;28.95;35.69;101360.56;4919619;29;20070;-77
2022/07/09 09:45:27;;;;;;;2.95;0.60;;;;;;;29.04;35.23;101360.81;4931954;29;20044;-78
2022/07/09 09:48:13;;;;;;;12.63;1.25;;;;;;;29.00;35.38;101358.06;4983542;23;20070;-62
2022/07/09 09:51:01;;;;;;;5.07;0.80;;;;;;;29.04;35.02;101352.41;4949538;29;20099;-64
2022/07/09 09:53:47;;;;;;;2.63;0.80;;;;;;;29.12;35.25;101354.66;4938874;29;20155;-64
2022/07/09 09:56:33;;;;;;;6.70;0.60;;;;;;;29.14;35.30;101346.63;4941590;29;20517;-65
2022/07/09 09:59:18;;;;;;;1.40;0.50;;;;;;;29.18;34.90;101346.53;4934224;29;20058;-64
2022/07/09 10:02:06;;;;;;;3.88;0.73;;;;;;;29.24;34.75;101342.84;4939179;29;20042;-63
2022/07/09 10:04:51;;;;;;;2.72;0.50;;;;;;;29.29;34.83;101335.94;4937764;29;20518;-63
2022/07/09 10:07:36;;;;;;;5.45;0.70;;;;;;;29.22;35.66;101336.84;4927312;29;20518;-64
2022/07/09 10:10:21;;;;;;;4.28;0.80;;;;;;;29.20;35.58;101339.31;4942019;29;20054;-65
2022/07/09 10:13:06;;;;;;;2.17;0.45;;;;;;;29.20;34.69;101338.50;4934323;29;20070;-65
2022/07/09 10:15:51;;;;;;;2.88;0.40;;;;;;;29.31;34.16;101339.13;4942552;29;20062;-64
2022/07/09 10:18:36;;;;;;;1.90;0.50;;;;;;;29.35;34.23;101334.25;4930506;28;20050;-64
2022/07/09 10:21:39;;;;;;;0.70;0.50;;;;;;;29.46;34.30;101323.63;4925378;29;20051;-61
2022/07/09 10:24:32;;;;;;;0.60;0.40;;;;;;;29.45;34.52;101338.88;4929785;29;20062;-63
2022/07/09 10:27:17;;;;;;;1.57;0.60;;;;;;;29.56;34.08;101327.44;4933488;29;20055;-64
2022/07/09 10:30:03;;;;;;;2.03;0.40;;;;;;;29.53;34.16;101325.50;4927195;29;20047;-63
2022/07/09 10:33:13;;;;;;;1.65;0.50;;;;;;;29.55;33.91;101326.66;4930869;29;20058;-63
2022/07/09 10:36:10;;;;;;;2.95;0.80;;;;;;;29.65;33.45;101325.66;4929853;29;20047;-64
2022/07/09 10:38:56;;;;;;;2.20;0.45;;;;;;;29.67;33.58;101323.19;4934297;29;20059;-65
2022/07/09 10:41:41;;;;;;;2.38;0.57;;;;;;;29.73;33.50;101320.69;4929386;29;20423;-65
2022/07/09 10:44:40;;;;;;;2.45;0.50;;;;;;;29.75;34.21;101318.25;4926713;29;20038;-64
2022/07/09 10:47:36;;;;;;;0.98;0.30;;;;;;;29.79;33.98;101323.78;4932228;29;21018;-64
2022/07/09 10:50:22;;;;;;;89.95;4.43;;;;;;;29.73;33.99;101315.06;4930009;29;20051;-64
2022/07/09 10:53:08;;;;;;;1.67;0.32;;;;;;;29.90;33.83;101313.94;4928693;29;20047;-63
2022/07/09 10:55:52;;;;;;;1.23;0.25;;;;;;;29.93;32.67;101318.69;4928365;29;20046;-65
2022/07/09 10:58:37;;;;;;;1.50;0.30;;;;;;;29.85;32.64;101305.22;4928474;29;20055;-64
2022/07/09 11:01:25;;;;;;;2.42;0.43;;;;;;;29.83;33.54;101300.03;4932768;29;20511;-64
2022/07/09 11:04:12;;;;;;;1.80;0.60;;;;;;;29.70;34.69;101299.91;4922325;29;20431;-64
2022/07/09 11:06:56;;;;;;;1.25;0.40;;;;;;;29.67;33.83;101295.16;4928019;29;20416;-65
2022/07/09 11:09:41;;;;;;;0.68;0.30;;;;;;;29.73;33.00;101293.44;4922412;29;20046;-63
2022/07/09 11:12:26;;;;;;;3.25;0.52;;;;;;;29.84;33.37;101282.00;4929857;28;20336;-65
2022/07/09 11:15:17;;;;;;;2.22;0.60;;;;;;;29.94;34.17;101283.00;4928088;29;20099;-64
2022/07/09 11:18:04;;;;;;;107.25;70.55;;;;;;;30.02;33.48;101282.41;4925042;29;20039;-65
2022/07/09 11:20:50;;;;;;;30.08;11.35;;;;;;;29.99;33.44;101276.88;4914536;29;20048;-64
2022/07/09 11:23:35;;;;;;;77.68;16.80;;;;;;;29.90;34.45;101273.88;4920641;29;20040;-63
2022/07/09 11:26:20;;;;;;;106.00;8.43;;;;;;;29.91;33.41;101272.66;4933459;29;20047;-67
2022/07/09 11:29:10;;;;;;;15.20;1.42;;;;;;;30.04;33.07;101274.34;4918634;29;20044;-64
2022/07/09 11:31:54;;;;;;;7.55;0.82;;;;;;;30.13;32.29;101273.75;4945356;29;20055;-64
2022/07/09 11:34:49;;;;;;;2.95;0.80;;;;;;;30.18;32.02;101262.00;4929620;29;20534;-63
2022/07/09 11:37:34;;;;;;;;;;;;;;;30.20;31.94;101265.16;4934261;29;20042;-64
2022/07/09 11:40:19;;;;;;;11.15;1.92;;;;;;;30.20;31.92;101270.00;4933658;29;19922;-64
2022/07/09 11:43:13;;;;;;;2.72;0.50;;;;;;;30.21;31.58;101261.16;4941577;28;20051;-65
2022/07/09 11:45:58;;;;;;;4.57;0.95;;;;;;;30.14;31.76;101258.50;4935368;29;20055;-63
2022/07/09 11:48:53;;;;;;;3.40;0.63;;;;;;;30.26;31.06;101252.22;4933559;29;20124;-65
2022/07/09 11:51:39;;;;;;;2.00;0.60;;;;;;;30.29;31.45;101245.69;4933458;29;20046;-65
2022/07/09 11:54:28;;;;;;;5.78;0.80;;;;;;;30.39;31.17;101244.66;4934890;29;20058;-64
2022/07/09 11:57:21;;;;;;;14.35;1.15;;;;;;;30.46;31.07;101240.88;4936352;29;20055;-65
2022/07/09 12:00:19;;;;;;;12.02;0.60;;;;;;;30.49;30.52;101234.41;4944087;28;20044;-64
2022/07/09 12:03:04;;;;;;;0.75;0.20;;;;;;;30.55;30.07;101232.66;4932998;29;20055;-65
2022/07/09 12:05:50;;;;;;;1.13;0.40;;;;;;;30.48;30.45;101233.63;4933475;29;20054;-64
2022/07/09 12:08:35;;;;;;;2.70;0.50;;;;;;;30.58;30.42;101229.75;4933348;29;20050;-62
2022/07/09 12:11:27;;;;;;;1.15;0.30;;;;;;;30.75;29.80;101224.13;4932774;29;20051;-63
2022/07/09 12:14:13;;;;;;;7.35;1.48;;;;;;;30.66;30.81;101221.94;4933259;29;20046;-63
2022/07/09 12:16:58;;;;;;;2.28;0.20;;;;;;;30.70;30.27;101214.22;4940304;29;20054;-65
2022/07/09 12:19:43;;;;;;;2.92;0.80;;;;;;;30.83;29.55;101220.66;4953755;28;20046;-64
2022/07/09 12:22:27;;;;;;;3.17;0.57;;;;;;;30.81;29.44;101220.34;4944729;29;20066;-64
2022/07/09 12:25:13;;;;;;;1.98;0.57;;;;;;;30.77;29.50;101208.41;4937478;28;20051;-64
2022/07/09 12:27:58;;;;;;;5.72;1.10;;;;;;;30.71;30.57;101200.97;4932370;29;20047;-64
2022/07/09 12:30:44;;;;;;;1.70;0.63;;;;;;;30.70;30.08;101200.16;4932047;29;20051;-65
2022/07/09 12:33:29;;;;;;;2.53;0.70;;;;;;;30.69;30.81;101200.59;4928091;29;20091;-64
2022/07/09 12:36:16;;;;;;;1.88;0.47;;;;;;;30.76;29.67;101195.59;4934395;29;20054;-65
2022/07/09 12:39:01;;;;;;;0.95;0.50;;;;;;;30.83;29.17;101192.56;4937638;28;20055;-64
2022/07/09 12:41:46;;;;;;;1.13;0.40;;;;;;;30.72;30.14;101194.13;4941829;29;20063;-65
2022/07/09 12:44:31;;;;;;;5.47;0.50;;;;;;;30.78;29.58;101193.13;4928216;29;20061;-65
2022/07/09 12:47:16;;;;;;;1.50;0.40;;;;;;;30.74;29.22;101197.25;4938811;29;20128;-65
2022/07/09 12:50:03;;;;;;;3.47;0.70;;;;;;;30.55;31.35;101184.94;4935289;29;20050;-63
2022/07/09 12:52:48;;;;;;;2.35;0.38;;;;;;;30.46;30.36;101179.94;4938194;29;20051;-63